Everglades, Florida
Current Conditions -  °F | °C
As of 5:55 PM on Monday 22 Dec 2014 (Local Time) from KMKY Reporting Station
Clear Clear  
Wind Chill: 73°   Ceiling: Unl
Heat Index: 73°   Visibility: 10mi
Dew Point: 70°   Wind: 6mph
Humidity: 88%   Direction: 160°SSE
Pressure: 29.94"   Gusts: NA
Location:  25.8583°N, 81.3702°W
Report Text: KMKY 222255Z AUTO 16005KT 10SM CLR 23/21 A2994 RMK AO1
Loading
Personal Weather Stations






























Interactive Weather Map New forecast layout! Learn more

10-Day Weather Forecast

Advertisements
Track Severe Weather on mobile